Time;durP1;ratioP1;P1;durP2;ratioP2;P2;SDS_P1;SDS_P2;PMS_P1;PMS_P2;Temp;Humidity;BMP_temperature;BMP_pressure;BME280_temperature;BME280_humidity;BME280_pressure;Samples;Min_cycle;Max_cycle;Signal;HPM_P1;HPM_P2
2023/09/03 00:00:55;;;;;;;5.95;4.75;;;12.20;99.90;;;;;;5023364;28;20049;-67
2023/09/03 00:03:20;;;;;;;5.65;4.68;;;12.20;99.90;;;;;;5040141;28;20041;-68
2023/09/03 00:05:51;;;;;;;8.27;5.10;;;12.10;99.90;;;;;;5018676;28;20045;-68
2023/09/03 00:08:17;;;;;;;8.27;4.93;;;12.20;99.90;;;;;;5047960;28;20036;-68
2023/09/03 00:10:42;;;;;;;8.48;5.53;;;12.10;99.90;;;;;;5031871;28;20050;-68
2023/09/03 00:13:08;;;;;;;10.07;6.20;;;12.10;99.90;;;;;;5027189;28;20029;-67
2023/09/03 00:15:36;;;;;;;8.38;7.38;;;12.10;99.90;;;;;;5031453;28;20120;-67
2023/09/03 00:18:02;;;;;;;8.05;6.00;;;12.10;99.90;;;;;;5040492;28;20112;-68
2023/09/03 00:20:28;;;;;;;6.78;5.22;;;12.10;99.90;;;;;;5031745;28;20113;-67
2023/09/03 00:22:53;;;;;;;6.68;5.03;;;12.00;99.90;;;;;;5028510;28;20049;-67
2023/09/03 00:25:19;;;;;;;8.52;5.72;;;12.00;99.90;;;;;;5028660;28;20069;-68
2023/09/03 00:27:44;;;;;;;9.65;5.55;;;11.90;99.90;;;;;;5013556;28;20048;-68
2023/09/03 00:30:10;;;;;;;7.50;5.38;;;11.90;99.90;;;;;;5026945;28;20049;-67
2023/09/03 00:32:36;;;;;;;10.63;6.82;;;11.90;99.90;;;;;;5049072;28;20135;-68
2023/09/03 00:35:02;;;;;;;13.75;8.18;;;12.00;99.90;;;;;;5036774;28;20042;-68
2023/09/03 00:37:27;;;;;;;9.35;7.30;;;12.10;99.90;;;;;;5028138;28;20042;-67
2023/09/03 00:39:53;;;;;;;10.38;6.85;;;12.00;99.90;;;;;;5033040;28;20033;-68
2023/09/03 00:42:18;;;;;;;13.98;8.60;;;11.90;99.90;;;;;;5032457;28;20051;-67
2023/09/03 00:44:44;;;;;;;10.82;7.68;;;11.90;99.90;;;;;;5033503;28;20042;-68
2023/09/03 00:47:10;;;;;;;13.38;7.40;;;11.90;99.90;;;;;;5025056;28;20042;-67
2023/09/03 00:49:41;;;;;;;8.88;7.18;;;11.80;99.90;;;;;;5028866;28;20043;-68
2023/09/03 00:52:07;;;;;;;12.18;6.40;;;11.80;99.90;;;;;;5027838;28;20088;-67
2023/09/03 00:54:32;;;;;;;9.40;5.78;;;11.80;99.90;;;;;;5028383;28;20150;-67
2023/09/03 00:56:58;;;;;;;7.25;5.10;;;11.80;99.90;;;;;;5033597;28;20037;-67
2023/09/03 00:59:27;;;;;;;9.52;5.85;;;11.80;99.90;;;;;;5042076;28;20045;-67
2023/09/03 01:01:53;;;;;;;10.10;5.43;;;11.70;99.90;;;;;;5025128;28;20060;-67
2023/09/03 01:04:19;;;;;;;8.93;5.80;;;11.70;99.90;;;;;;5038614;28;20113;-68
2023/09/03 01:06:47;;;;;;;12.63;7.72;;;11.70;99.90;;;;;;5039255;28;20052;-67
2023/09/03 01:09:13;;;;;;;14.77;9.55;;;11.70;99.90;;;;;;5041682;28;20037;-67
2023/09/03 01:11:53;;;;;;;11.48;9.00;;;11.60;99.90;;;;;;5037739;28;20042;-68
2023/09/03 01:14:39;;;;;;;11.70;8.67;;;11.60;99.90;;;;;;5029662;28;20465;-67
2023/09/03 01:17:21;;;;;;;16.25;11.27;;;11.50;99.90;;;;;;5030726;28;20077;-67
2023/09/03 01:20:06;;;;;;;20.00;12.48;;;11.60;99.90;;;;;;5032450;28;20041;-68
2023/09/03 01:23:00;;;;;;;16.15;10.75;;;11.50;99.90;;;;;;5040420;28;20170;-68
2023/09/03 01:25:37;;;;;;;11.40;7.30;;;11.50;99.90;;;;;;5039386;28;20075;-67
2023/09/03 01:28:29;;;;;;;12.60;8.45;;;11.60;99.90;;;;;;5038038;28;20192;-67
2023/09/03 01:31:02;;;;;;;14.57;9.15;;;11.60;99.90;;;;;;5037804;28;22535;-67
2023/09/03 01:33:29;;;;;;;18.48;10.68;;;11.70;99.90;;;;;;5033137;28;20037;-68
2023/09/03 01:35:57;;;;;;;21.73;13.15;;;11.70;99.90;;;;;;5021563;28;20037;-67
2023/09/03 01:38:23;;;;;;;22.92;14.75;;;11.80;99.90;;;;;;5033423;28;20048;-67
2023/09/03 01:40:50;;;;;;;21.08;14.65;;;11.80;99.90;;;;;;5033113;28;20039;-67
2023/09/03 01:43:16;;;;;;;21.98;13.63;;;11.80;99.90;;;;;;5034467;28;20042;-67
2023/09/03 01:45:55;;;;;;;19.15;11.23;;;11.80;99.90;;;;;;5030534;28;20041;-67
2023/09/03 01:48:41;;;;;;;18.70;11.48;;;11.70;99.90;;;;;;5035781;28;20033;-67
2023/09/03 01:51:14;;;;;;;22.55;14.05;;;11.70;99.90;;;;;;5033699;28;20040;-67
2023/09/03 01:54:02;;;;;;;21.30;14.20;;;11.80;99.90;;;;;;5012112;28;20430;-68
2023/09/03 01:56:30;;;;;;;23.75;15.23;;;11.90;99.90;;;;;;5045652;28;20558;-67
2023/09/03 01:58:59;;;;;;;26.65;14.60;;;11.90;99.90;;;;;;5015166;28;20057;-67
2023/09/03 02:01:30;;;;;;;21.30;12.40;;;11.90;99.90;;;;;;5034794;28;20091;-68
2023/09/03 02:03:56;;;;;;;19.33;11.55;;;11.90;99.90;;;;;;5038977;28;20375;-67
2023/09/03 02:06:22;;;;;;;22.75;11.43;;;11.90;99.90;;;;;;5023369;28;20118;-68
2023/09/03 02:08:47;;;;;;;24.60;13.90;;;11.80;99.90;;;;;;5049017;28;20092;-68
2023/09/03 02:11:13;;;;;;;28.38;15.65;;;11.80;99.90;;;;;;5035786;28;20512;-68
2023/09/03 02:13:39;;;;;;;27.52;15.77;;;12.00;99.90;;;;;;5035833;28;20063;-68
2023/09/03 02:16:04;;;;;;;24.67;15.35;;;12.00;99.90;;;;;;5033106;28;20045;-67
2023/09/03 02:18:30;;;;;;;22.98;13.80;;;12.00;99.90;;;;;;5028571;28;20072;-67
2023/09/03 02:20:58;;;;;;;26.20;16.02;;;12.10;99.90;;;;;;5027185;28;20136;-68
2023/09/03 02:23:24;;;;;;;23.73;13.82;;;12.10;99.90;;;;;;5039886;28;20179;-68
2023/09/03 02:25:59;;;;;;;19.70;12.70;;;12.00;99.90;;;;;;5042524;28;20052;-67
2023/09/03 02:28:25;;;;;;;17.35;10.52;;;11.90;99.90;;;;;;5030442;28;20119;-68
2023/09/03 02:30:50;;;;;;;17.15;9.80;;;11.90;99.90;;;;;;5018650;28;20076;-67
2023/09/03 02:33:16;;;;;;;16.02;9.05;;;11.80;99.90;;;;;;5035197;28;20045;-67
2023/09/03 02:35:41;;;;;;;16.15;8.68;;;11.80;99.90;;;;;;5034609;28;20061;-67
2023/09/03 02:38:07;;;;;;;13.85;8.57;;;11.70;99.90;;;;;;5031795;28;20038;-67
2023/09/03 02:40:33;;;;;;;14.05;8.52;;;11.70;99.90;;;;;;5042518;28;20033;-67
2023/09/03 02:42:58;;;;;;;15.68;8.30;;;11.70;99.90;;;;;;5029698;28;20037;-67
2023/09/03 02:45:24;;;;;;;13.15;7.32;;;11.60;99.90;;;;;;5042781;28;20094;-67
2023/09/03 02:47:49;;;;;;;10.93;7.32;;;11.50;99.90;;;;;;5028428;28;20052;-67
2023/09/03 02:50:15;;;;;;;14.35;9.20;;;11.50;99.90;;;;;;5027565;28;20071;-67
2023/09/03 02:52:40;;;;;;;18.17;9.60;;;11.40;99.90;;;;;;5036692;28;20052;-67
2023/09/03 02:55:06;;;;;;;16.70;9.50;;;11.40;99.90;;;;;;5040557;28;20047;-67
2023/09/03 02:57:32;;;;;;;29.85;13.73;;;11.40;99.90;;;;;;5047302;28;20033;-67
2023/09/03 02:59:57;;;;;;;20.90;11.05;;;11.40;99.90;;;;;;5042619;28;20461;-67
2023/09/03 03:02:23;;;;;;;23.25;12.43;;;11.30;99.90;;;;;;5042431;28;20041;-67
2023/09/03 03:04:48;;;;;;;20.95;12.07;;;11.30;99.90;;;;;;5041326;28;20501;-67
2023/09/03 03:07:14;;;;;;;21.60;12.52;;;11.30;99.90;;;;;;5036847;28;20364;-67
2023/09/03 03:09:39;;;;;;;21.38;11.80;;;11.30;99.90;;;;;;5040609;28;20495;-68
2023/09/03 03:12:05;;;;;;;24.77;12.27;;;11.20;99.90;;;;;;5027402;28;20472;-67
2023/09/03 03:14:31;;;;;;;19.98;12.18;;;11.20;99.90;;;;;;5007921;28;20029;-67
2023/09/03 03:16:56;;;;;;;23.63;12.13;;;11.30;99.90;;;;;;5030512;28;20549;-67
2023/09/03 03:19:22;;;;;;;19.48;11.68;;;11.30;99.90;;;;;;5036385;28;20064;-67
2023/09/03 03:21:47;;;;;;;22.40;11.80;;;11.30;99.90;;;;;;5040862;28;20554;-67
2023/09/03 03:24:13;;;;;;;18.38;11.52;;;11.20;99.90;;;;;;5023279;28;20037;-67
2023/09/03 03:26:38;;;;;;;21.10;11.10;;;11.20;99.90;;;;;;5040662;28;20052;-68
2023/09/03 03:29:04;;;;;;;18.85;10.85;;;11.30;99.90;;;;;;5038575;28;20096;-67
2023/09/03 03:31:31;;;;;;;17.33;10.52;;;11.20;99.90;;;;;;5035364;28;20501;-67
2023/09/03 03:33:56;;;;;;;18.17;10.32;;;11.20;99.90;;;;;;5016419;28;20036;-67
2023/09/03 03:36:22;;;;;;;13.88;9.15;;;11.20;99.90;;;;;;5041038;28;20037;-67
2023/09/03 03:38:48;;;;;;;15.85;9.60;;;11.10;99.90;;;;;;5036426;28;20106;-67
2023/09/03 03:41:19;;;;;;;15.70;9.70;;;11.10;99.90;;;;;;5027660;28;20060;-67
2023/09/03 03:43:46;;;;;;;14.00;9.00;;;11.10;99.90;;;;;;5027242;28;20063;-67
2023/09/03 03:46:14;;;;;;;14.80;8.82;;;11.00;99.90;;;;;;5042254;28;20052;-67
2023/09/03 03:48:40;;;;;;;13.38;8.63;;;10.90;99.90;;;;;;5032975;28;20151;-67
2023/09/03 03:51:06;;;;;;;15.52;9.15;;;10.90;99.90;;;;;;5047444;28;20757;-67
2023/09/03 03:53:32;;;;;;;15.80;9.10;;;10.90;99.90;;;;;;5031005;28;20389;-67
2023/09/03 03:56:08;;;;;;;14.00;8.50;;;10.90;99.90;;;;;;5038738;28;20183;-67
2023/09/03 03:58:36;;;;;;;13.63;8.45;;;10.90;99.90;;;;;;5029127;28;20377;-67
2023/09/03 04:01:15;;;;;;;15.57;9.00;;;10.80;99.90;;;;;;5035092;28;20072;-67
2023/09/03 04:03:41;;;;;;;14.88;8.82;;;10.80;99.90;;;;;;5025744;28;20051;-67
2023/09/03 04:06:07;;;;;;;15.82;8.73;;;10.90;99.90;;;;;;5030010;28;20409;-67
2023/09/03 04:08:35;;;;;;;14.98;9.02;;;10.90;99.90;;;;;;5029802;28;20030;-67
2023/09/03 04:11:12;;;;;;;12.30;8.23;;;10.90;99.90;;;;;;5032684;28;20041;-67
2023/09/03 04:13:39;;;;;;;11.82;7.75;;;10.90;99.90;;;;;;5026796;28;20447;-67
2023/09/03 04:16:19;;;;;;;10.70;7.95;;;10.90;99.90;;;;;;5010236;28;20045;-67
2023/09/03 04:18:45;;;;;;;12.80;7.50;;;10.90;99.90;;;;;;5041432;28;20566;-67
2023/09/03 04:21:11;;;;;;;13.93;8.48;;;10.90;99.90;;;;;;5040413;28;20044;-67
2023/09/03 04:23:36;;;;;;;13.82;7.53;;;10.90;99.90;;;;;;5028461;28;20091;-67
2023/09/03 04:26:02;;;;;;;10.75;7.55;;;10.90;99.90;;;;;;5037152;28;20191;-67
2023/09/03 04:28:28;;;;;;;12.32;7.47;;;10.90;99.90;;;;;;5032168;28;20145;-67
2023/09/03 04:30:59;;;;;;;12.73;7.40;;;10.80;99.90;;;;;;5032488;28;20084;-67
2023/09/03 04:33:25;;;;;;;12.77;6.93;;;10.80;99.90;;;;;;5041080;28;20030;-67
2023/09/03 04:35:59;;;;;;;10.77;7.13;;;10.80;99.90;;;;;;5028305;28;20034;-67
2023/09/03 04:38:25;;;;;;;12.35;7.28;;;10.70;99.90;;;;;;5040021;28;20033;-67
2023/09/03 04:40:51;;;;;;;11.18;7.40;;;10.70;99.90;;;;;;5036210;28;20033;-67
2023/09/03 04:43:18;;;;;;;12.23;7.50;;;10.60;99.90;;;;;;5027828;28;20517;-67
2023/09/03 04:45:51;;;;;;;15.48;8.02;;;10.60;99.90;;;;;;5027395;28;20049;-67
2023/09/03 04:48:18;;;;;;;14.38;7.55;;;10.60;99.90;;;;;;5042449;28;20050;-67
2023/09/03 04:50:44;;;;;;;13.55;7.85;;;10.50;99.90;;;;;;5029119;28;20516;-67
2023/09/03 04:53:11;;;;;;;14.05;8.38;;;10.60;99.90;;;;;;5040135;28;20045;-67
2023/09/03 04:55:38;;;;;;;14.65;7.90;;;10.50;99.90;;;;;;5035380;28;20547;-66
2023/09/03 04:58:03;;;;;;;13.52;8.15;;;10.50;99.90;;;;;;5027389;28;20457;-67
2023/09/03 05:00:30;;;;;;;13.48;8.45;;;10.50;99.90;;;;;;5031020;28;20040;-67
2023/09/03 05:02:56;;;;;;;14.82;8.20;;;10.50;99.90;;;;;;5044219;28;20438;-67
2023/09/03 05:05:21;;;;;;;13.32;8.20;;;10.60;99.90;;;;;;5028469;28;20136;-66
2023/09/03 05:07:47;;;;;;;14.25;8.85;;;10.60;99.90;;;;;;5017171;28;20091;-67
2023/09/03 05:10:13;;;;;;;10.45;6.85;;;10.60;99.90;;;;;;5036018;28;20408;-67
2023/09/03 05:12:40;;;;;;;13.10;7.85;;;10.60;99.90;;;;;;5031873;28;20038;-67
2023/09/03 05:15:08;;;;;;;13.18;7.53;;;10.60;99.90;;;;;;5032625;28;20079;-67
2023/09/03 05:17:33;;;;;;;13.68;8.27;;;10.60;99.90;;;;;;5016754;28;20349;-67
2023/09/03 05:19:59;;;;;;;16.40;9.05;;;10.60;99.90;;;;;;5033548;28;20033;-67
2023/09/03 05:22:24;;;;;;;15.68;9.52;;;10.70;99.90;;;;;;5030512;28;20030;-67
2023/09/03 05:24:50;;;;;;;14.13;8.70;;;10.70;99.90;;;;;;5030230;28;20113;-67
2023/09/03 05:27:16;;;;;;;13.13;9.05;;;10.80;99.90;;;;;;5027888;28;20041;-67
2023/09/03 05:29:41;;;;;;;16.58;9.68;;;10.80;99.90;;;;;;5035202;28;20140;-67
2023/09/03 05:32:07;;;;;;;14.57;9.57;;;10.90;99.90;;;;;;5031000;28;20043;-67
2023/09/03 05:34:33;;;;;;;17.23;9.85;;;10.90;99.90;;;;;;5037197;28;20048;-67
2023/09/03 05:36:58;;;;;;;17.63;10.05;;;11.00;99.90;;;;;;5028032;28;20076;-67
2023/09/03 05:39:25;;;;;;;17.38;9.93;;;11.10;99.90;;;;;;5036331;28;20412;-67
2023/09/03 05:41:50;;;;;;;18.10;9.80;;;11.10;99.90;;;;;;5033905;28;20146;-67
2023/09/03 05:44:16;;;;;;;17.17;10.07;;;11.10;99.90;;;;;;5044922;28;20152;-67
2023/09/03 05:46:43;;;;;;;16.48;9.73;;;11.20;99.90;;;;;;5030640;28;20045;-67
2023/09/03 05:49:08;;;;;;;15.65;9.20;;;11.30;99.90;;;;;;5044460;28;20067;-67
2023/09/03 05:51:34;;;;;;;14.88;8.55;;;11.40;99.90;;;;;;5030296;28;20404;-67
2023/09/03 05:54:00;;;;;;;14.90;9.15;;;11.50;99.90;;;;;;5028423;28;20053;-67
2023/09/03 05:56:25;;;;;;;15.50;9.00;;;11.60;99.90;;;;;;5047386;28;20330;-67
2023/09/03 05:58:51;;;;;;;14.05;8.82;;;11.70;99.90;;;;;;5040294;28;20036;-68
2023/09/03 06:01:18;;;;;;;13.98;8.32;;;11.70;99.90;;;;;;5040604;28;20053;-67
2023/09/03 06:03:43;;;;;;;13.50;8.63;;;11.90;99.90;;;;;;5027269;28;20059;-68
2023/09/03 06:06:10;;;;;;;13.13;8.43;;;11.90;99.90;;;;;;5042078;28;20045;-68
2023/09/03 06:08:37;;;;;;;16.58;8.82;;;12.10;99.90;;;;;;5032109;28;20037;-68
2023/09/03 06:11:03;;;;;;;14.52;8.98;;;12.20;99.90;;;;;;5026287;28;20072;-68
2023/09/03 06:13:30;;;;;;;14.43;9.05;;;12.30;99.90;;;;;;5014409;28;20037;-68
2023/09/03 06:15:56;;;;;;;17.70;9.48;;;12.40;99.90;;;;;;5023407;28;20037;-68
2023/09/03 06:18:23;;;;;;;13.68;9.13;;;12.50;99.90;;;;;;5028421;28;20490;-68
2023/09/03 06:20:49;;;;;;;14.10;9.27;;;12.60;99.90;;;;;;5013577;28;20050;-68
2023/09/03 06:23:18;;;;;;;12.25;8.52;;;12.70;99.90;;;;;;5031282;28;20599;-67
2023/09/03 06:25:45;;;;;;;12.07;8.13;;;12.90;99.90;;;;;;5031123;28;20044;-68
2023/09/03 06:28:11;;;;;;;15.43;8.23;;;13.00;99.90;;;;;;5028299;28;20053;-68
2023/09/03 06:30:37;;;;;;;12.38;8.38;;;13.10;99.90;;;;;;5008096;28;20056;-69
2023/09/03 06:33:03;;;;;;;12.00;8.00;;;13.20;99.90;;;;;;5034105;28;20055;-68
2023/09/03 06:35:28;;;;;;;11.90;7.90;;;13.30;99.90;;;;;;5010177;28;20037;-68
2023/09/03 06:37:57;;;;;;;11.60;7.70;;;13.50;99.90;;;;;;5034449;28;20048;-68
2023/09/03 06:40:23;;;;;;;13.07;7.93;;;13.70;99.90;;;;;;5028917;28;20126;-68
2023/09/03 06:42:49;;;;;;;10.77;7.25;;;13.80;99.90;;;;;;5030777;28;20037;-68
2023/09/03 06:45:15;;;;;;;11.15;7.97;;;14.00;99.90;;;;;;5032929;28;20064;-69
2023/09/03 06:47:41;;;;;;;10.43;7.30;;;14.20;99.90;;;;;;5031386;28;20155;-69
2023/09/03 06:50:07;;;;;;;13.00;7.35;;;14.40;99.90;;;;;;5012776;28;20868;-68
2023/09/03 06:52:36;;;;;;;9.48;7.15;;;14.50;99.90;;;;;;5029365;28;20041;-69
2023/09/03 06:55:02;;;;;;;9.25;6.07;;;14.80;99.90;;;;;;5030590;28;20041;-69
2023/09/03 06:57:28;;;;;;;8.50;5.88;;;15.10;99.90;;;;;;5033580;28;20077;-69
2023/09/03 06:59:54;;;;;;;6.07;5.05;;;15.50;99.90;;;;;;5035966;28;20033;-69
2023/09/03 07:02:20;;;;;;;8.73;5.50;;;15.70;99.90;;;;;;5041348;28;20048;-69
2023/09/03 07:04:46;;;;;;;5.68;4.93;;;15.90;99.90;;;;;;5043763;28;20037;-70
2023/09/03 07:07:11;;;;;;;8.10;4.93;;;16.20;99.90;;;;;;5024304;28;20037;-69
2023/09/03 07:09:37;;;;;;;4.40;3.65;;;16.50;99.90;;;;;;5043693;28;20041;-70
2023/09/03 07:12:03;;;;;;;6.13;4.00;;;16.90;99.90;;;;;;5032517;28;20129;-70
2023/09/03 07:14:33;;;;;;;4.90;3.45;;;17.20;99.90;;;;;;5045685;28;20071;-70
2023/09/03 07:16:59;;;;;;;4.68;3.13;;;17.40;99.90;;;;;;5031862;28;20707;-71
2023/09/03 07:19:25;;;;;;;4.18;3.00;;;17.70;99.90;;;;;;5031181;28;20142;-70
2023/09/03 07:21:51;;;;;;;2.78;2.38;;;17.90;99.90;;;;;;5033180;28;20072;-70
2023/09/03 07:24:16;;;;;;;3.58;2.40;;;18.10;99.90;;;;;;5030120;28;20068;-70
2023/09/03 07:26:43;;;;;;;4.68;2.22;;;18.40;99.90;;;;;;5046707;28;20045;-71
2023/09/03 07:29:08;;;;;;;4.05;2.33;;;18.50;99.90;;;;;;5028311;28;20251;-70
2023/09/03 07:31:37;;;;;;;3.50;2.35;;;18.70;99.90;;;;;;5046043;28;20135;-72
2023/09/03 07:34:02;;;;;;;2.10;1.90;;;18.80;99.90;;;;;;5037350;28;20046;-71
2023/09/03 07:36:28;;;;;;;2.25;2.03;;;19.10;99.90;;;;;;5036396;28;20370;-71
2023/09/03 07:38:54;;;;;;;3.28;2.25;;;19.20;99.90;;;;;;5041870;28;20041;-71
2023/09/03 07:41:19;;;;;;;3.90;1.83;;;19.30;99.90;;;;;;5047067;28;20056;-71
2023/09/03 07:43:45;;;;;;;3.80;1.80;;;19.30;99.90;;;;;;5031848;28;20490;-71
2023/09/03 07:46:10;;;;;;;2.90;1.77;;;19.40;99.90;;;;;;5040370;28;22491;-71
2023/09/03 07:48:36;;;;;;;3.05;1.52;;;19.40;99.90;;;;;;5035572;28;20890;-70
2023/09/03 07:51:01;;;;;;;2.80;1.50;;;19.50;99.90;;;;;;5035475;28;20033;-72
2023/09/03 07:53:28;;;;;;;2.60;1.60;;;19.50;99.90;;;;;;5046751;28;20086;-71
2023/09/03 07:55:54;;;;;;;3.53;1.50;;;19.40;99.90;;;;;;5048822;28;20032;-70
2023/09/03 07:58:20;;;;;;;2.75;1.65;;;19.40;99.90;;;;;;5037646;28;20512;-72
2023/09/03 08:00:49;;;;;;;3.38;1.50;;;19.30;99.40;;;;;;5034765;28;20047;-70
2023/09/03 08:03:14;;;;;;;6.57;1.83;;;19.20;98.60;;;;;;5029994;28;20393;-72
2023/09/03 08:05:40;;;;;;;2.72;1.60;;;19.20;98.30;;;;;;5028613;28;20029;-70
2023/09/03 08:08:05;;;;;;;3.50;1.60;;;19.10;97.80;;;;;;5033133;28;20029;-71
2023/09/03 08:10:31;;;;;;;3.00;1.60;;;19.10;97.60;;;;;;5035436;28;20160;-71
2023/09/03 08:12:56;;;;;;;4.43;1.67;;;19.20;97.40;;;;;;5027162;28;20092;-71
2023/09/03 08:15:22;;;;;;;2.35;1.42;;;19.30;97.20;;;;;;5030428;28;20061;-72
2023/09/03 08:17:47;;;;;;;3.95;1.50;;;19.30;96.80;;;;;;5036953;28;20041;-71
2023/09/03 08:20:13;;;;;;;1.98;1.40;;;19.50;96.30;;;;;;5031208;28;20043;-72
2023/09/03 08:22:39;;;;;;;2.45;1.50;;;19.30;95.50;;;;;;5043334;28;20123;-72
2023/09/03 08:25:05;;;;;;;2.70;1.25;;;19.80;94.70;;;;;;5048509;28;20071;-72
2023/09/03 08:27:31;;;;;;;3.00;1.45;;;20.10;93.20;;;;;;5043890;28;20045;-72
2023/09/03 08:29:56;;;;;;;2.15;1.40;;;20.40;92.60;;;;;;5042624;28;20028;-71
2023/09/03 08:32:23;;;;;;;2.47;1.00;;;20.80;91.80;;;;;;5026893;28;20078;-71
2023/09/03 08:34:50;;;;;;;2.10;1.33;;;21.20;91.00;;;;;;5041696;28;21676;-71
2023/09/03 08:37:16;;;;;;;2.53;1.23;;;21.50;90.00;;;;;;5037321;28;20053;-72
2023/09/03 08:39:41;;;;;;;4.63;1.33;;;21.80;87.40;;;;;;5030726;28;20045;-73
2023/09/03 08:42:10;;;;;;;2.58;1.02;;;21.80;85.70;;;;;;5009743;28;20486;-73
2023/09/03 08:44:46;;;;;;;2.42;1.15;;;22.30;84.00;;;;;;5043059;28;20113;-72
2023/09/03 08:47:16;;;;;;;2.40;1.35;;;22.70;82.50;;;;;;5013548;28;20041;-72
2023/09/03 08:49:44;;;;;;;1.98;1.10;;;23.00;79.80;;;;;;5044666;28;20057;-73
2023/09/03 08:52:10;;;;;;;2.15;1.10;;;23.40;79.50;;;;;;5031035;28;20092;-72
2023/09/03 08:54:37;;;;;;;2.55;1.30;;;23.30;78.90;;;;;;5038594;28;20051;-73
2023/09/03 08:57:04;;;;;;;2.85;1.05;;;23.30;77.60;;;;;;5041238;28;20119;-73
2023/09/03 08:59:30;;;;;;;1.90;1.08;;;23.00;77.60;;;;;;5038739;28;20476;-72
2023/09/03 09:01:57;;;;;;;1.35;1.15;;;23.00;76.70;;;;;;5033961;28;20183;-73
2023/09/03 09:04:28;;;;;;;2.55;1.17;;;23.00;75.80;;;;;;5037565;28;20060;-71
2023/09/03 09:06:53;;;;;;;2.92;1.15;;;22.60;75.10;;;;;;5024849;28;20049;-73
2023/09/03 09:09:20;;;;;;;2.03;1.10;;;22.40;76.70;;;;;;5041264;28;20037;-75
2023/09/03 09:11:54;;;;;;;2.10;1.20;;;22.10;76.10;;;;;;5027654;28;20033;-74
2023/09/03 09:14:39;;;;;;;3.70;1.25;;;22.00;75.70;;;;;;5046849;28;20464;-74
2023/09/03 09:17:12;;;;;;;2.25;1.13;;;22.00;74.20;;;;;;5040189;28;20067;-74
2023/09/03 09:19:37;;;;;;;3.08;1.05;;;21.90;75.30;;;;;;5030241;28;20053;-73
2023/09/03 09:22:03;;;;;;;1.77;0.98;;;22.30;75.30;;;;;;5038654;28;20369;-74
2023/09/03 09:24:29;;;;;;;2.75;1.58;;;22.50;75.20;;;;;;5047298;28;20032;-74
2023/09/03 09:27:13;;;;;;;1.92;1.10;;;22.60;74.90;;;;;;5051477;28;20041;-73
2023/09/03 09:29:38;;;;;;;2.83;1.20;;;22.70;73.90;;;;;;5049257;28;20060;-73
2023/09/03 09:32:20;;;;;;;1.02;0.90;;;22.60;74.20;;;;;;5045574;28;20353;-73
2023/09/03 09:34:46;;;;;;;3.92;1.17;;;22.60;73.00;;;;;;5019523;28;20086;-73
2023/09/03 09:37:13;;;;;;;1.42;0.90;;;22.60;74.30;;;;;;5033578;28;20469;-73
2023/09/03 09:39:49;;;;;;;3.05;1.20;;;22.50;74.70;;;;;;5019772;28;20041;-73
2023/09/03 09:42:21;;;;;;;1.98;1.08;;;22.40;73.70;;;;;;5050534;28;20053;-74
2023/09/03 09:44:52;;;;;;;1.23;0.95;;;22.30;75.00;;;;;;5035987;28;20090;-72
2023/09/03 09:47:20;;;;;;;2.17;1.10;;;22.00;73.70;;;;;;5031299;28;20058;-73
2023/09/03 09:49:46;;;;;;;3.17;1.08;;;22.00;74.20;;;;;;5032342;28;20045;-73
2023/09/03 09:52:12;;;;;;;1.35;0.95;;;22.00;73.90;;;;;;5039047;28;20439;-73
2023/09/03 09:54:39;;;;;;;1.33;0.80;;;22.00;73.50;;;;;;5051065;28;20103;-74
2023/09/03 09:57:16;;;;;;;2.38;1.02;;;22.10;73.70;;;;;;5036090;28;20136;-73
2023/09/03 09:59:55;;;;;;;1.48;1.25;;;22.10;73.10;;;;;;5048015;28;20184;-73
2023/09/03 10:02:22;;;;;;;1.97;1.17;;;22.00;73.40;;;;;;5032584;28;20037;-73
2023/09/03 10:04:50;;;;;;;2.60;1.20;;;22.00;72.40;;;;;;5021817;28;20098;-73
2023/09/03 10:07:16;;;;;;;3.00;1.10;;;22.00;71.90;;;;;;5034238;28;20049;-73
2023/09/03 10:09:43;;;;;;;2.15;1.23;;;22.10;72.30;;;;;;5032529;28;20502;-71
2023/09/03 10:12:09;;;;;;;1.55;1.02;;;22.10;72.70;;;;;;5037938;28;20049;-73
2023/09/03 10:14:36;;;;;;;1.60;1.05;;;22.10;73.00;;;;;;5042001;28;20048;-76
2023/09/03 10:17:04;;;;;;;2.05;1.45;;;22.10;72.40;;;;;;5020140;28;20531;-74
2023/09/03 10:19:47;;;;;;;3.40;1.30;;;22.10;72.50;;;;;;5043274;28;20041;-73
2023/09/03 10:22:16;;;;;;;2.72;1.08;;;22.10;68.30;;;;;;5039299;28;20098;-74
2023/09/03 10:24:46;;;;;;;1.58;1.15;;;21.90;71.40;;;;;;5050169;28;20219;-73
2023/09/03 10:27:13;;;;;;;;;;;21.80;70.50;;;;;;5035907;28;20497;-73
2023/09/03 10:29:41;;;;;;;2.50;1.20;;;21.70;71.10;;;;;;5034526;28;19916;-74
2023/09/03 10:32:07;;;;;;;2.20;0.90;;;21.90;72.00;;;;;;5036125;28;20090;-73
2023/09/03 10:34:36;;;;;;;2.15;1.33;;;21.80;71.40;;;;;;5039885;28;20056;-73
2023/09/03 10:37:14;;;;;;;2.58;1.48;;;21.60;69.60;;;;;;5040341;28;20044;-72
2023/09/03 10:39:42;;;;;;;2.08;1.20;;;21.60;69.40;;;;;;5014246;28;20064;-73
2023/09/03 10:42:31;;;;;;;2.17;1.17;;;21.60;70.00;;;;;;5041140;28;20049;-72
2023/09/03 10:44:58;;;;;;;1.73;1.00;;;21.70;68.90;;;;;;5034783;28;20407;-70
2023/09/03 10:47:24;;;;;;;2.05;1.13;;;21.60;69.50;;;;;;5024356;28;20045;-71
2023/09/03 10:49:52;;;;;;;1.55;0.80;;;21.50;68.90;;;;;;5023063;28;20033;-73
2023/09/03 10:52:27;;;;;;;2.67;0.82;;;21.60;68.90;;;;;;5035420;28;20088;-71
2023/09/03 10:55:15;;;;;;;1.60;0.70;;;21.80;67.50;;;;;;5033433;28;20355;-72
2023/09/03 10:57:42;;;;;;;2.22;1.20;;;21.70;66.30;;;;;;5036710;28;20443;-74
2023/09/03 11:00:09;;;;;;;2.10;1.52;;;21.30;67.60;;;;;;5038566;28;20029;-72
2023/09/03 11:02:36;;;;;;;1.40;1.17;;;21.50;67.90;;;;;;5036389;28;20045;-71
2023/09/03 11:05:15;;;;;;;1.83;1.10;;;21.50;68.50;;;;;;5045903;28;20917;-72
2023/09/03 11:07:44;;;;;;;2.05;1.17;;;21.50;68.70;;;;;;5047036;28;20519;-72
2023/09/03 11:10:27;;;;;;;2.30;1.13;;;21.60;68.20;;;;;;5028804;28;20404;-72
2023/09/03 11:12:54;;;;;;;1.70;0.90;;;21.70;69.70;;;;;;5044925;28;20083;-70
2023/09/03 11:15:20;;;;;;;1.38;0.90;;;21.90;69.10;;;;;;5038817;28;20394;-72
2023/09/03 11:17:56;;;;;;;3.00;1.00;;;22.00;68.90;;;;;;5025828;28;20052;-70
2023/09/03 11:20:35;;;;;;;1.35;0.90;;;22.10;67.40;;;;;;5018297;28;20052;-72
2023/09/03 11:23:04;;;;;;;2.08;1.10;;;22.00;68.00;;;;;;5021176;28;20453;-72
2023/09/03 11:25:35;;;;;;;1.00;0.90;;;22.10;67.40;;;;;;5044836;28;20045;-72
2023/09/03 11:28:01;;;;;;;1.35;1.13;;;22.20;67.50;;;;;;5045166;28;20050;-72
2023/09/03 11:30:27;;;;;;;1.90;0.93;;;22.40;66.90;;;;;;5036312;28;20033;-72
2023/09/03 11:32:53;;;;;;;1.92;0.82;;;22.40;67.00;;;;;;5044278;28;20056;-72
2023/09/03 11:35:19;;;;;;;3.28;1.30;;;22.50;67.20;;;;;;5043635;28;20036;-72
2023/09/03 11:37:44;;;;;;;2.13;1.08;;;22.50;67.70;;;;;;5037027;28;20560;-73
2023/09/03 11:40:12;;;;;;;2.58;1.15;;;22.50;68.00;;;;;;5043060;28;20048;-70
2023/09/03 11:42:41;;;;;;;1.88;0.88;;;22.60;68.10;;;;;;5034119;28;20041;-72
2023/09/03 11:45:08;;;;;;;3.05;0.90;;;22.60;67.20;;;;;;5042758;28;20393;-73
2023/09/03 11:47:46;;;;;;;2.30;1.33;;;22.40;66.50;;;;;;5016920;28;20076;-71
2023/09/03 11:50:13;;;;;;;2.85;1.15;;;22.40;65.00;;;;;;5037770;28;20037;-72
2023/09/03 11:52:41;;;;;;;2.10;1.10;;;22.30;63.10;;;;;;5018697;28;20053;-71
2023/09/03 11:55:06;;;;;;;1.65;1.27;;;22.30;64.80;;;;;;5035937;28;20116;-70
2023/09/03 11:57:36;;;;;;;1.02;0.90;;;22.30;65.30;;;;;;5031866;28;20132;-71
2023/09/03 12:00:03;;;;;;;1.17;0.90;;;22.40;66.00;;;;;;5045296;28;20036;-72
2023/09/03 12:02:29;;;;;;;1.52;0.82;;;22.50;66.50;;;;;;5023773;28;20075;-72
2023/09/03 12:04:55;;;;;;;2.90;0.90;;;22.50;66.50;;;;;;5045429;28;20077;-70
2023/09/03 12:07:21;;;;;;;1.92;1.10;;;22.40;67.00;;;;;;5030651;28;20139;-72
2023/09/03 12:09:49;;;;;;;1.67;0.98;;;22.60;67.40;;;;;;5035043;28;20140;-72
2023/09/03 12:12:16;;;;;;;3.55;1.10;;;22.60;66.40;;;;;;5037580;28;20053;-72
2023/09/03 12:14:42;;;;;;;1.60;0.93;;;22.50;65.70;;;;;;5034297;28;20133;-72
2023/09/03 12:17:07;;;;;;;2.78;1.30;;;22.50;64.70;;;;;;5037633;28;20124;-75
2023/09/03 12:19:42;;;;;;;1.23;1.00;;;22.60;64.70;;;;;;5034304;28;20045;-72
2023/09/03 12:22:09;;;;;;;1.27;1.00;;;22.60;64.10;;;;;;5037338;28;20079;-72
2023/09/03 12:24:34;;;;;;;1.13;0.90;;;22.80;64.30;;;;;;5038522;28;20126;-72
2023/09/03 12:27:04;;;;;;;2.17;1.00;;;22.90;63.90;;;;;;5043322;28;20128;-72
2023/09/03 12:29:38;;;;;;;1.98;0.82;;;22.90;64.20;;;;;;5033198;28;20342;-71
2023/09/03 12:32:08;;;;;;;1.00;0.70;;;23.00;63.90;;;;;;5045800;28;20534;-71
2023/09/03 12:34:38;;;;;;;1.95;0.77;;;23.10;63.70;;;;;;5039762;28;20038;-71
2023/09/03 12:37:05;;;;;;;1.35;0.77;;;23.20;63.50;;;;;;5037264;28;20381;-71
2023/09/03 12:39:35;;;;;;;1.00;0.77;;;23.20;63.30;;;;;;5029469;28;20041;-71
2023/09/03 12:42:04;;;;;;;2.13;0.85;;;23.40;62.00;;;;;;5037069;28;20049;-71
2023/09/03 12:44:31;;;;;;;1.40;1.10;;;23.30;61.50;;;;;;5040259;28;20041;-71